createdAt,value
2022-12-13T00:01:45.642Z,-6.36
2022-12-13T00:04:13.997Z,-6.31
2022-12-13T00:06:41.028Z,-6.24
2022-12-13T00:09:07.932Z,-6.34
2022-12-13T00:11:35.043Z,-6.36
2022-12-13T00:14:02.219Z,-6.31
2022-12-13T00:16:29.166Z,-6.21
2022-12-13T00:19:00.208Z,-6.21
2022-12-13T00:21:32.251Z,-6.20
2022-12-13T00:24:00.413Z,-6.27
2022-12-13T00:26:30.432Z,-6.51
2022-12-13T00:29:00.745Z,-6.43
2022-12-13T00:31:56.673Z,-6.40
2022-12-13T00:34:14.880Z,-6.27
2022-12-13T00:36:41.671Z,-6.36
2022-12-13T00:39:08.485Z,-6.39
2022-12-13T00:41:36.161Z,-6.26
2022-12-13T00:44:04.517Z,-6.22
2022-12-13T00:46:31.638Z,-6.28
2022-12-13T00:49:00.302Z,-6.43
2022-12-13T00:51:29.306Z,-6.40
2022-12-13T00:53:56.551Z,-6.48
2022-12-13T00:56:25.840Z,-6.58
2022-12-13T00:58:53.739Z,-6.65
2022-12-13T01:01:24.788Z,-6.61
2022-12-13T01:03:53.558Z,-6.56
2022-12-13T01:06:23.611Z,-6.56
2022-12-13T01:08:50.442Z,-6.56
2022-12-13T01:11:18.399Z,-6.55
2022-12-13T01:13:45.197Z,-6.72
2022-12-13T01:16:12.960Z,-6.66
2022-12-13T01:18:40.659Z,-6.83
2022-12-13T01:21:13.393Z,-6.78
2022-12-13T01:23:40.745Z,-6.76
2022-12-13T01:26:09.896Z,-6.64
2022-12-13T01:28:36.688Z,-6.70
2022-12-13T01:31:05.845Z,-6.66
2022-12-13T01:33:33.222Z,-6.57
2022-12-13T01:36:05.785Z,-6.62
2022-12-13T01:38:37.897Z,-6.69
2022-12-13T01:41:16.758Z,-6.74
2022-12-13T01:43:54.999Z,-6.59
2022-12-13T01:46:21.960Z,-6.60
2022-12-13T01:49:19.627Z,-6.65
2022-12-13T01:51:51.679Z,-6.71
2022-12-13T01:54:22.830Z,-6.80
2022-12-13T01:56:52.690Z,-6.81
2022-12-13T01:59:28.231Z,-6.78
2022-12-13T02:02:00.764Z,-6.79
2022-12-13T02:04:44.197Z,-6.79
2022-12-13T02:07:22.704Z,-6.89
2022-12-13T02:09:56.259Z,-6.76
2022-12-13T02:12:25.451Z,-6.72
2022-12-13T02:15:11.860Z,-6.81
2022-12-13T02:18:10.453Z,-6.61
2022-12-13T02:21:02.921Z,-6.64
2022-12-13T02:24:09.058Z,-6.57
2022-12-13T02:26:48.399Z,-6.68
2022-12-13T02:29:39.017Z,-6.75
2022-12-13T02:32:15.922Z,-6.64
2022-12-13T02:35:22.451Z,-6.69
2022-12-13T02:38:00.017Z,-6.65
2022-12-13T02:40:30.719Z,-6.67
2022-12-13T02:43:21.489Z,-6.63
2022-12-13T02:45:58.316Z,-6.48
2022-12-13T02:48:29.370Z,-6.52
2022-12-13T02:50:57.043Z,-6.64
2022-12-13T02:53:24.621Z,-6.52
2022-12-13T02:55:51.617Z,-6.56
2022-12-13T02:58:23.145Z,-6.64
2022-12-13T03:01:28.928Z,-6.58
2022-12-13T03:04:36.262Z,-6.65
2022-12-13T03:07:24.424Z,-6.33
2022-12-13T03:10:06.397Z,-6.40
2022-12-13T03:12:56.287Z,-6.46
2022-12-13T03:15:47.955Z,-6.43
2022-12-13T03:18:17.763Z,-6.43
2022-12-13T03:20:49.869Z,-6.43
2022-12-13T03:23:18.197Z,-6.33
2022-12-13T03:25:46.367Z,-6.46
2022-12-13T03:28:13.646Z,-6.64
2022-12-13T03:30:40.440Z,-6.44
2022-12-13T03:33:07.258Z,-6.50
2022-12-13T03:35:45.426Z,-6.47
2022-12-13T03:38:22.017Z,-6.42
2022-12-13T03:40:54.840Z,-6.53
2022-12-13T03:43:22.930Z,-6.47
2022-12-13T03:45:53.612Z,-6.31
2022-12-13T03:48:22.761Z,-6.42
2022-12-13T03:50:53.743Z,-6.27
2022-12-13T03:53:22.644Z,-6.37
2022-12-13T03:55:58.532Z,-6.39
2022-12-13T03:58:35.816Z,-6.39
2022-12-13T04:01:09.103Z,-6.27
2022-12-13T04:03:36.941Z,-6.16
2022-12-13T04:06:04.164Z,-6.11
2022-12-13T04:08:31.043Z,-6.19
2022-12-13T04:10:57.902Z,-6.20
2022-12-13T04:13:33.722Z,-6.27
2022-12-13T04:16:01.868Z,-6.28
2022-12-13T04:18:28.864Z,-6.26
2022-12-13T04:20:55.668Z,-6.31
2022-12-13T04:23:22.523Z,-6.30
2022-12-13T04:25:49.329Z,-6.28
2022-12-13T04:28:22.402Z,-6.12
2022-12-13T04:30:53.101Z,-6.07
2022-12-13T04:33:22.280Z,-6.16
2022-12-13T04:35:49.628Z,-6.15
2022-12-13T04:38:16.463Z,-6.12
2022-12-13T04:40:43.417Z,-6.19
2022-12-13T04:43:10.463Z,-6.17
2022-12-13T04:45:37.309Z,-6.23
2022-12-13T04:48:04.639Z,-6.28
2022-12-13T04:50:31.421Z,-6.09
2022-12-13T04:52:58.256Z,-6.20
2022-12-13T04:55:25.018Z,-6.05
2022-12-13T04:57:51.809Z,-6.00
2022-12-13T05:00:18.760Z,-6.01
2022-12-13T05:02:45.955Z,-6.08
2022-12-13T05:05:13.202Z,-5.98
2022-12-13T05:07:42.104Z,-6.05
2022-12-13T05:10:10.447Z,-6.15
2022-12-13T05:12:37.337Z,-6.31
2022-12-13T05:15:04.747Z,-6.27
2022-12-13T05:17:31.943Z,-6.16
2022-12-13T05:19:58.734Z,-6.12
2022-12-13T05:22:25.519Z,-6.13
2022-12-13T05:24:52.458Z,-6.08
2022-12-13T05:27:24.859Z,-6.40
2022-12-13T05:30:04.019Z,-6.58
2022-12-13T05:32:43.507Z,-6.38
2022-12-13T05:35:22.310Z,-6.26
2022-12-13T05:37:55.301Z,-6.17
2022-12-13T05:40:27.376Z,-6.15
2022-12-13T05:43:01.466Z,-6.26
2022-12-13T05:45:30.128Z,-6.16
2022-12-13T05:47:57.094Z,-6.28
2022-12-13T05:50:24.604Z,-6.41
2022-12-13T05:52:51.637Z,-6.38
2022-12-13T05:55:18.648Z,-6.49
2022-12-13T05:57:50.543Z,-6.23
2022-12-13T06:00:28.857Z,-6.44
2022-12-13T06:03:00.563Z,-6.37
2022-12-13T06:05:28.961Z,-6.18
2022-12-13T06:07:57.440Z,-6.20
2022-12-13T06:10:35.006Z,-6.12
2022-12-13T06:13:21.010Z,-6.17
2022-12-13T06:15:48.244Z,-6.30
2022-12-13T06:18:15.621Z,-6.22
2022-12-13T06:20:42.407Z,-6.21
2022-12-13T06:23:09.420Z,-6.23
2022-12-13T06:25:39.357Z,-6.35
2022-12-13T06:28:06.137Z,-6.20
2022-12-13T06:30:33.227Z,-6.24
2022-12-13T06:33:00.228Z,-6.25
2022-12-13T06:35:29.892Z,-6.17
2022-12-13T06:38:01.171Z,-6.13
2022-12-13T06:40:29.053Z,-5.94
2022-12-13T06:42:56.102Z,-6.23
2022-12-13T06:45:23.820Z,-6.43
2022-12-13T06:47:50.866Z,-6.32
2022-12-13T06:50:17.716Z,-6.35
2022-12-13T06:52:46.933Z,-6.18
2022-12-13T06:55:14.113Z,-6.24
2022-12-13T06:57:42.007Z,-6.31
2022-12-13T07:00:10.555Z,-6.40
2022-12-13T07:02:38.656Z,-6.55
2022-12-13T07:05:06.097Z,-6.38
2022-12-13T07:07:32.845Z,-6.35
2022-12-13T07:09:59.780Z,-6.31
2022-12-13T07:12:26.677Z,-6.38
2022-12-13T07:14:53.790Z,-6.26
2022-12-13T07:17:33.512Z,-6.29
2022-12-13T07:20:08.689Z,-6.35
2022-12-13T07:22:40.102Z,-6.45
2022-12-13T07:25:28.665Z,-6.46
2022-12-13T07:28:05.454Z,-6.53
2022-12-13T07:30:41.387Z,-6.52
2022-12-13T07:33:09.411Z,-6.32
2022-12-13T07:35:37.224Z,-6.58
2022-12-13T07:38:05.557Z,-6.64
2022-12-13T07:40:34.890Z,-6.36
2022-12-13T07:43:02.043Z,-6.28
2022-12-13T07:45:29.356Z,-6.19
2022-12-13T07:47:56.290Z,-6.23
2022-12-13T07:50:25.178Z,-6.36
2022-12-13T07:52:53.658Z,-6.36
2022-12-13T07:55:23.193Z,-6.42
2022-12-13T07:58:08.520Z,-6.28
2022-12-13T08:00:35.871Z,-6.31
2022-12-13T08:03:02.923Z,-6.19
2022-12-13T08:05:29.841Z,-6.28
2022-12-13T08:08:07.702Z,-6.12
2022-12-13T08:10:34.841Z,-6.46
2022-12-13T08:13:05.151Z,-6.52
2022-12-13T08:15:32.144Z,-6.48
2022-12-13T08:18:01.180Z,-6.46
2022-12-13T08:20:28.384Z,-6.41
2022-12-13T08:23:02.128Z,-6.46
2022-12-13T08:25:30.752Z,-6.26
2022-12-13T08:28:01.952Z,-6.08
2022-12-13T08:30:29.808Z,-6.29
2022-12-13T08:32:56.510Z,-6.33
2022-12-13T08:35:23.241Z,-6.25
2022-12-13T08:37:50.233Z,-6.12
2022-12-13T08:40:17.167Z,-6.23
2022-12-13T08:42:44.103Z,-6.12
2022-12-13T08:45:11.674Z,-6.05
2022-12-13T08:47:41.711Z,-5.91
2022-12-13T08:50:09.207Z,-5.91
2022-12-13T08:52:40.122Z,-5.80
2022-12-13T08:55:12.781Z,-5.75
2022-12-13T08:57:41.144Z,-5.93
2022-12-13T09:00:12.498Z,-6.05
2022-12-13T09:02:39.477Z,-5.90
2022-12-13T09:05:08.493Z,-5.90
2022-12-13T09:07:36.530Z,-5.99
2022-12-13T09:10:25.333Z,-6.12
2022-12-13T09:12:52.063Z,-6.18
2022-12-13T09:15:28.801Z,-6.29
2022-12-13T09:18:04.881Z,-6.20
2022-12-13T09:20:40.787Z,-5.99
2022-12-13T09:23:13.798Z,-6.04
2022-12-13T09:26:05.327Z,-6.06
2022-12-13T09:28:34.771Z,-6.08
2022-12-13T09:31:01.665Z,-6.08
2022-12-13T09:33:31.097Z,-6.29
2022-12-13T09:35:58.311Z,-6.20
2022-12-13T09:38:31.345Z,-5.94
2022-12-13T09:41:40.732Z,-5.83
2022-12-13T09:44:31.013Z,-5.97
2022-12-13T09:47:13.630Z,-5.90
2022-12-13T09:49:43.437Z,-6.08
2022-12-13T09:52:22.532Z,-6.09
2022-12-13T09:54:53.058Z,-6.17
2022-12-13T09:57:32.837Z,-6.06
2022-12-13T10:00:06.330Z,-5.87
2022-12-13T10:02:33.994Z,-5.97
2022-12-13T10:05:34.236Z,-5.90
2022-12-13T10:08:16.702Z,-5.77
2022-12-13T10:10:44.259Z,-5.82
2022-12-13T10:13:17.313Z,-5.68
2022-12-13T10:15:48.287Z,-5.68
2022-12-13T10:18:20.446Z,-5.69
2022-12-13T10:20:49.786Z,-5.58
2022-12-13T10:23:38.553Z,-5.56
2022-12-13T10:26:09.790Z,-5.47
2022-12-13T10:28:51.654Z,-5.37
2022-12-13T10:31:20.296Z,-5.32
2022-12-13T10:33:58.291Z,-5.22
2022-12-13T10:36:36.082Z,-5.22
2022-12-13T10:39:03.565Z,-5.04
2022-12-13T10:41:38.600Z,-5.20
2022-12-13T10:44:23.085Z,-4.98
2022-12-13T10:47:17.061Z,-4.94
2022-12-13T10:49:59.029Z,-5.00
2022-12-13T10:52:43.480Z,-4.91
2022-12-13T10:55:32.428Z,-4.97
2022-12-13T10:58:07.560Z,-4.87
2022-12-13T11:00:45.854Z,-5.00
2022-12-13T11:03:29.711Z,-4.85
2022-12-13T11:06:19.797Z,-4.81
2022-12-13T11:08:46.672Z,-4.91
2022-12-13T11:11:16.825Z,-4.77
2022-12-13T11:13:51.842Z,-4.61
2022-12-13T11:16:18.647Z,-4.50
2022-12-13T11:18:54.948Z,-4.44
2022-12-13T11:21:27.206Z,-4.41
2022-12-13T11:23:56.206Z,-4.27
2022-12-13T11:26:29.678Z,-4.28
2022-12-13T11:29:30.994Z,-4.41
2022-12-13T11:32:36.220Z,-4.36
2022-12-13T11:35:15.153Z,-4.15
2022-12-13T11:38:32.904Z,-4.30
2022-12-13T11:41:07.859Z,-4.19
2022-12-13T11:43:44.330Z,-4.02
2022-12-13T11:46:17.409Z,-4.00
2022-12-13T11:48:48.724Z,-3.90
2022-12-13T11:51:20.990Z,-3.89
2022-12-13T11:54:02.790Z,-3.88
2022-12-13T11:56:42.697Z,-3.77
2022-12-13T11:59:43.076Z,-3.90
2022-12-13T12:02:21.807Z,-3.96
2022-12-13T12:04:58.341Z,-4.09
2022-12-13T12:07:36.469Z,-4.16
2022-12-13T12:10:58.102Z,-3.98
2022-12-13T12:14:14.468Z,-3.92
2022-12-13T12:16:42.770Z,-3.83
2022-12-13T12:19:20.874Z,-3.81
2022-12-13T12:22:46.759Z,-3.73
2022-12-13T12:25:35.676Z,-3.64
2022-12-13T12:28:18.461Z,-3.56
2022-12-13T12:30:51.441Z,-3.52
2022-12-13T12:33:44.462Z,-3.47
2022-12-13T12:36:33.161Z,-3.44
2022-12-13T12:39:26.250Z,-3.68
2022-12-13T12:42:19.439Z,-3.59
2022-12-13T12:45:27.038Z,-3.69
2022-12-13T12:48:56.923Z,-3.49
2022-12-13T12:51:28.973Z,-3.44
2022-12-13T12:54:34.854Z,-3.43
2022-12-13T12:57:32.051Z,-3.40
2022-12-13T13:00:17.692Z,-3.34
2022-12-13T13:03:15.801Z,-3.28
2022-12-13T13:06:08.552Z,-3.22
2022-12-13T13:08:55.500Z,-3.32
2022-12-13T13:11:25.987Z,-3.27
2022-12-13T13:14:27.067Z,-3.23
2022-12-13T13:16:55.929Z,-3.24
2022-12-13T13:19:41.324Z,-3.15
2022-12-13T13:22:31.053Z,-3.10
2022-12-13T13:25:02.056Z,-3.05
2022-12-13T13:27:30.469Z,-3.00
2022-12-13T13:30:17.056Z,-2.99
2022-12-13T13:32:44.344Z,-2.96
2022-12-13T13:35:53.369Z,-2.84
2022-12-13T13:38:29.203Z,-2.84
2022-12-13T13:40:55.976Z,-2.81
2022-12-13T13:43:32.529Z,-2.83
2022-12-13T13:46:11.039Z,-2.81
2022-12-13T13:48:56.340Z,-2.73
2022-12-13T13:52:23.906Z,-2.94
2022-12-13T13:54:55.910Z,-2.90
2022-12-13T13:58:10.155Z,-2.97
2022-12-13T14:01:08.931Z,-2.98
2022-12-13T14:04:04.256Z,-2.96
2022-12-13T14:07:26.559Z,-2.99
2022-12-13T14:10:03.118Z,-3.00
2022-12-13T14:13:10.593Z,-3.04
2022-12-13T14:16:25.531Z,-3.08
2022-12-13T14:19:27.990Z,-3.09
2022-12-13T14:22:35.553Z,-3.02
2022-12-13T14:25:46.427Z,-3.05
2022-12-13T14:28:44.784Z,-2.97
2022-12-13T14:31:38.138Z,-2.89
2022-12-13T14:34:07.749Z,-2.85
2022-12-13T14:36:36.665Z,-2.78
2022-12-13T14:39:07.164Z,-2.79
2022-12-13T14:41:56.404Z,-2.63
2022-12-13T14:44:31.418Z,-2.66
2022-12-13T14:47:03.923Z,-2.75
2022-12-13T14:49:33.409Z,-2.83
2022-12-13T14:52:06.507Z,-2.96
2022-12-13T14:54:58.000Z,-3.03
2022-12-13T14:57:30.379Z,-3.08
2022-12-13T14:59:59.685Z,-3.13
2022-12-13T15:02:30.048Z,-3.19
2022-12-13T15:05:03.373Z,-3.27
2022-12-13T15:07:38.138Z,-3.38
2022-12-13T15:10:48.429Z,-3.42
2022-12-13T15:13:33.259Z,-3.38
2022-12-13T15:16:10.916Z,-3.38
2022-12-13T15:18:38.747Z,-3.39
2022-12-13T15:21:19.455Z,-3.54
2022-12-13T15:23:49.029Z,-3.93
2022-12-13T15:26:28.379Z,-3.82
2022-12-13T15:29:09.424Z,-3.75
2022-12-13T15:31:37.638Z,-3.81
2022-12-13T15:34:34.226Z,-3.82
2022-12-13T15:37:07.392Z,-3.93
2022-12-13T15:39:41.206Z,-3.88
2022-12-13T15:42:32.084Z,-3.84
2022-12-13T15:45:01.434Z,-3.92
2022-12-13T15:47:29.356Z,-4.03
2022-12-13T15:50:05.809Z,-4.06
2022-12-13T15:52:41.446Z,-4.12
2022-12-13T15:55:11.001Z,-4.20
2022-12-13T15:57:55.324Z,-4.17
2022-12-13T16:00:34.569Z,-4.12
2022-12-13T16:03:28.033Z,-4.02
2022-12-13T16:05:56.758Z,-4.20
2022-12-13T16:08:35.887Z,-4.00
2022-12-13T16:11:03.428Z,-4.14
2022-12-13T16:13:38.077Z,-4.16
2022-12-13T16:16:28.189Z,-4.63
2022-12-13T16:18:59.910Z,-4.79
2022-12-13T16:21:28.299Z,-4.65
2022-12-13T16:23:55.441Z,-4.59
2022-12-13T16:26:29.378Z,-4.48
2022-12-13T16:28:58.866Z,-4.40
2022-12-13T16:31:35.841Z,-4.37
2022-12-13T16:34:04.311Z,-4.29
2022-12-13T16:36:31.679Z,-4.36
2022-12-13T16:38:58.625Z,-4.47
2022-12-13T16:41:25.542Z,-4.42
2022-12-13T16:43:58.381Z,-4.41
2022-12-13T16:47:14.280Z,-4.58
2022-12-13T16:49:27.776Z,-4.59
2022-12-13T16:51:55.311Z,-4.85
2022-12-13T16:54:23.716Z,-4.72
2022-12-13T16:56:50.953Z,-4.75
2022-12-13T16:59:20.184Z,-4.86
2022-12-13T17:01:47.369Z,-4.72
2022-12-13T17:04:20.503Z,-4.73
2022-12-13T17:06:48.971Z,-4.77
2022-12-13T17:09:16.136Z,-4.78
2022-12-13T17:11:45.859Z,-4.80
2022-12-13T17:14:13.151Z,-4.90
2022-12-13T17:16:40.100Z,-4.84
2022-12-13T17:19:07.169Z,-4.91
2022-12-13T17:21:35.035Z,-4.99
2022-12-13T17:24:03.323Z,-5.11
2022-12-13T17:26:59.090Z,-5.04
2022-12-13T17:29:26.464Z,-5.03
2022-12-13T17:31:53.727Z,-5.08
2022-12-13T17:34:20.864Z,-5.15
2022-12-13T17:36:47.629Z,-5.24
2022-12-13T17:39:14.606Z,-5.08
2022-12-13T17:41:42.076Z,-5.06
2022-12-13T17:44:09.221Z,-5.04
2022-12-13T17:46:36.659Z,-4.96
2022-12-13T17:49:03.639Z,-5.08
2022-12-13T17:51:31.395Z,-5.14
2022-12-13T17:53:58.179Z,-5.18
2022-12-13T17:56:25.838Z,-5.04
2022-12-13T17:58:52.780Z,-5.23
2022-12-13T18:01:24.279Z,-5.17
2022-12-13T18:03:56.127Z,-5.20
2022-12-13T18:06:24.485Z,-5.27
2022-12-13T18:08:51.636Z,-5.28
2022-12-13T18:11:35.649Z,-5.37
2022-12-13T18:14:03.261Z,-5.35
2022-12-13T18:16:36.486Z,-5.27
2022-12-13T18:19:10.791Z,-5.11
2022-12-13T18:21:38.002Z,-5.04
2022-12-13T18:24:06.561Z,-5.10
2022-12-13T18:26:33.740Z,-5.13
2022-12-13T18:29:00.707Z,-5.13
2022-12-13T18:31:28.305Z,-5.29
2022-12-13T18:33:55.544Z,-5.21
2022-12-13T18:36:24.526Z,-5.27
2022-12-13T18:38:51.755Z,-5.18
2022-12-13T18:41:23.814Z,-5.16
2022-12-13T18:44:04.802Z,-5.14
2022-12-13T18:46:33.600Z,-5.10
2022-12-13T18:49:00.429Z,-5.10
2022-12-13T18:51:28.040Z,-5.14
2022-12-13T18:53:55.158Z,-5.17
2022-12-13T18:56:22.302Z,-5.22
2022-12-13T18:58:49.696Z,-5.15
2022-12-13T19:01:18.360Z,-5.11
2022-12-13T19:03:47.051Z,-5.10
2022-12-13T19:06:20.304Z,-5.14
2022-12-13T19:08:49.196Z,-5.50
2022-12-13T19:11:16.414Z,-5.39
2022-12-13T19:13:43.498Z,-5.30
2022-12-13T19:16:14.971Z,-5.29
2022-12-13T19:18:42.571Z,-5.31
2022-12-13T19:21:13.857Z,-5.22
2022-12-13T19:23:41.002Z,-5.19
2022-12-13T19:26:09.782Z,-5.24
2022-12-13T19:28:38.380Z,-5.18
2022-12-13T19:31:15.695Z,-5.27
2022-12-13T19:33:43.070Z,-5.24
2022-12-13T19:36:10.993Z,-5.25
2022-12-13T19:38:38.642Z,-5.19
2022-12-13T19:41:14.654Z,-5.27
2022-12-13T19:43:41.898Z,-5.46
2022-12-13T19:46:09.382Z,-5.43
2022-12-13T19:48:37.985Z,-5.39
2022-12-13T19:51:07.254Z,-5.28
2022-12-13T19:53:35.355Z,-5.30
2022-12-13T19:56:12.104Z,-5.33
2022-12-13T19:58:42.386Z,-5.34
2022-12-13T20:01:09.503Z,-5.32
2022-12-13T20:03:41.749Z,-5.33
2022-12-13T20:06:10.761Z,-5.35
2022-12-13T20:08:37.890Z,-5.34
2022-12-13T20:11:07.082Z,-5.32
2022-12-13T20:13:34.578Z,-5.28
2022-12-13T20:16:01.664Z,-5.30
2022-12-13T20:18:28.501Z,-5.21
2022-12-13T20:21:14.249Z,-5.09
2022-12-13T20:23:48.636Z,-5.16
2022-12-13T20:26:27.377Z,-5.15
2022-12-13T20:28:54.950Z,-5.14
2022-12-13T20:31:28.970Z,-5.31
2022-12-13T20:33:56.948Z,-5.25
2022-12-13T20:36:26.671Z,-5.47
2022-12-13T20:38:56.310Z,-5.53
2022-12-13T20:41:25.758Z,-5.44
2022-12-13T20:43:57.402Z,-5.29
2022-12-13T20:46:25.612Z,-5.31
2022-12-13T20:48:53.416Z,-5.26
2022-12-13T20:51:22.378Z,-5.40
2022-12-13T20:53:50.348Z,-5.29
2022-12-13T20:56:19.485Z,-5.31
2022-12-13T20:58:46.879Z,-5.31
2022-12-13T21:01:18.840Z,-5.41
2022-12-13T21:03:49.477Z,-5.37
2022-12-13T21:06:16.549Z,-5.36
2022-12-13T21:08:52.511Z,-5.35
2022-12-13T21:11:26.908Z,-5.30
2022-12-13T21:14:07.547Z,-5.17
2022-12-13T21:16:41.821Z,-5.08
2022-12-13T21:19:14.673Z,-5.21
2022-12-13T21:21:41.961Z,-5.23
2022-12-13T21:24:09.260Z,-5.45
2022-12-13T21:26:36.642Z,-5.40
2022-12-13T21:29:06.803Z,-5.47
2022-12-13T21:31:34.729Z,-5.51
2022-12-13T21:34:08.463Z,-5.40
2022-12-13T21:36:42.972Z,-5.36
2022-12-13T21:39:15.561Z,-5.26
2022-12-13T21:41:43.411Z,-5.18
2022-12-13T21:44:11.251Z,-5.12
2022-12-13T21:49:28.321Z,-5.08
2022-12-13T21:51:55.720Z,-5.08
2022-12-13T21:54:23.041Z,-5.08
2022-12-13T21:57:08.809Z,-4.99
2022-12-13T21:59:35.738Z,-4.86
2022-12-13T22:02:12.278Z,-4.90
2022-12-13T22:04:41.051Z,-4.94
2022-12-13T22:07:10.704Z,-5.04
2022-12-13T22:09:38.194Z,-4.97
2022-12-13T22:12:10.635Z,-4.95
2022-12-13T22:14:37.783Z,-4.95
2022-12-13T22:17:04.629Z,-4.97
2022-12-13T22:19:31.718Z,-5.05
2022-12-13T22:21:58.511Z,-5.13
2022-12-13T22:24:25.458Z,-5.15
2022-12-13T22:26:52.491Z,-5.10
2022-12-13T22:29:19.261Z,-5.06
2022-12-13T22:31:48.782Z,-5.13
2022-12-13T22:34:16.545Z,-5.00
2022-12-13T22:36:43.420Z,-5.06
2022-12-13T22:39:18.069Z,-5.04
2022-12-13T22:41:46.432Z,-4.95
2022-12-13T22:44:13.938Z,-4.98
2022-12-13T22:46:41.453Z,-4.97
2022-12-13T22:49:09.077Z,-4.95
2022-12-13T22:51:36.579Z,-4.84
2022-12-13T22:54:03.724Z,-4.82
2022-12-13T22:56:32.941Z,-4.81
2022-12-13T22:59:02.147Z,-4.86
2022-12-13T23:01:34.141Z,-4.77
2022-12-13T23:04:01.074Z,-4.71
2022-12-13T23:06:30.281Z,-4.66
2022-12-13T23:09:02.138Z,-4.69
2022-12-13T23:11:48.319Z,-4.72
2022-12-13T23:14:18.083Z,-4.80
2022-12-13T23:16:45.356Z,-4.69
2022-12-13T23:19:40.816Z,-4.64
2022-12-13T23:22:02.026Z,-4.78
2022-12-13T23:24:29.102Z,-4.88
2022-12-13T23:26:55.950Z,-4.93
2022-12-13T23:29:22.835Z,-4.84
2022-12-13T23:31:49.580Z,-4.66
2022-12-13T23:34:16.734Z,-4.73
2022-12-13T23:36:43.568Z,-4.75
2022-12-13T23:39:11.294Z,-4.64
2022-12-13T23:41:38.085Z,-4.64
2022-12-13T23:44:05.098Z,-4.48
2022-12-13T23:46:34.441Z,-4.63
2022-12-13T23:49:02.465Z,-4.57
2022-12-13T23:51:29.545Z,-4.56
2022-12-13T23:53:56.689Z,-4.49
2022-12-13T23:56:23.956Z,-4.51
2022-12-13T23:58:51.868Z,-4.54
